Mc Farland, California
Current Conditions -  °F | °C
As of 4:54 PM on Tuesday 21 Oct 2014 (Local Time) from KBFL Reporting Station
Clear Clear  
Wind Chill: 70°   Ceiling: Unl
Heat Index: 70°   Visibility: 10mi
Dew Point: 42°   Wind: 5mph
Humidity: 36%   Direction: 290°WNW
Pressure: 29.97"   Gusts: NA
Location:  35.638°N, 119.198°W
Report Text: KBFL 212354Z 29004KT 10SM CLR 21/06 A2997 RMK AO2 SLP144 T02110056 10217 20178 56013
Loading
Personal Weather Stations






























Interactive Weather Map
Tropical Storm Tracking
New forecast layout! Learn more

10-Day Weather Forecast

Advertisements
Track Severe Weather on mobile